sensor_id;sensor_type;location;lat;lon;timestamp;pressure;altitude;pressure_sealevel;temperature;humidity
15817;BME280;8009;50.070;8.232;2022-09-30T00:00:10;99204.94;;;7.29;81.54
15817;BME280;8009;50.070;8.232;2022-09-30T00:02:38;99205.22;;;7.37;81.46
15817;BME280;8009;50.070;8.232;2022-09-30T00:05:08;99212.34;;;7.49;81.39
15817;BME280;8009;50.070;8.232;2022-09-30T00:07:39;99209.44;;;7.52;80.32
15817;BME280;8009;50.070;8.232;2022-09-30T00:10:08;99209.44;;;7.52;81.00
15817;BME280;8009;50.070;8.232;2022-09-30T00:12:38;99216.41;;;7.31;81.33
15817;BME280;8009;50.070;8.232;2022-09-30T00:15:07;99213.38;;;7.12;82.07
15817;BME280;8009;50.070;8.232;2022-09-30T00:17:35;99216.84;;;7.25;82.01
15817;BME280;8009;50.070;8.232;2022-09-30T00:20:04;99214.78;;;7.28;82.81
15817;BME280;8009;50.070;8.232;2022-09-30T00:22:32;99212.28;;;7.38;81.67
15817;BME280;8009;50.070;8.232;2022-09-30T00:25:04;99203.44;;;7.25;82.13
15817;BME280;8009;50.070;8.232;2022-09-30T00:27:32;99213.44;;;7.23;82.08
15817;BME280;8009;50.070;8.232;2022-09-30T00:30:01;99212.53;;;7.35;81.48
15817;BME280;8009;50.070;8.232;2022-09-30T00:32:29;99212.81;;;7.19;82.05
15817;BME280;8009;50.070;8.232;2022-09-30T00:34:58;99212.81;;;6.95;83.51
15817;BME280;8009;50.070;8.232;2022-09-30T00:37:26;99217.13;;;7.09;82.62
15817;BME280;8009;50.070;8.232;2022-09-30T00:39:54;99225.81;;;7.13;82.92
15817;BME280;8009;50.070;8.232;2022-09-30T00:42:25;99217.41;;;6.93;84.06
15817;BME280;8009;50.070;8.232;2022-09-30T00:44:56;99214.78;;;6.80;84.74
15817;BME280;8009;50.070;8.232;2022-09-30T00:47:42;99216.75;;;7.02;83.38
15817;BME280;8009;50.070;8.232;2022-09-30T00:50:23;99210.19;;;7.06;82.83
15817;BME280;8009;50.070;8.232;2022-09-30T00:52:55;99215.34;;;6.97;83.32
15817;BME280;8009;50.070;8.232;2022-09-30T00:55:30;99214.22;;;6.88;83.09
15817;BME280;8009;50.070;8.232;2022-09-30T00:58:05;99220.94;;;6.94;82.76
15817;BME280;8009;50.070;8.232;2022-09-30T01:00:35;99216.06;;;6.75;83.18
15817;BME280;8009;50.070;8.232;2022-09-30T01:03:04;99223.53;;;6.95;82.79
15817;BME280;8009;50.070;8.232;2022-09-30T01:05:33;99225.69;;;6.90;83.03
15817;BME280;8009;50.070;8.232;2022-09-30T01:08:04;99221.13;;;6.79;82.97
15817;BME280;8009;50.070;8.232;2022-09-30T01:10:33;99224.78;;;6.66;83.32
15817;BME280;8009;50.070;8.232;2022-09-30T01:13:04;99221.78;;;6.57;83.47
15817;BME280;8009;50.070;8.232;2022-09-30T01:16:01;99232.06;;;6.76;82.56
15817;BME280;8009;50.070;8.232;2022-09-30T01:18:45;99227.81;;;6.61;83.42
15817;BME280;8009;50.070;8.232;2022-09-30T01:21:49;99231.22;;;6.76;82.91
15817;BME280;8009;50.070;8.232;2022-09-30T01:24:51;99229.63;;;6.61;83.59
15817;BME280;8009;50.070;8.232;2022-09-30T01:27:50;99245.94;;;6.57;83.34
15817;BME280;8009;50.070;8.232;2022-09-30T01:30:41;99243.78;;;6.63;83.02
15817;BME280;8009;50.070;8.232;2022-09-30T01:33:20;99246.47;;;6.63;83.30
15817;BME280;8009;50.070;8.232;2022-09-30T01:36:04;99242.16;;;6.73;82.87
15817;BME280;8009;50.070;8.232;2022-09-30T01:38:44;99246.78;;;6.58;83.84
15817;BME280;8009;50.070;8.232;2022-09-30T01:41:22;99243.03;;;6.48;83.41
15817;BME280;8009;50.070;8.232;2022-09-30T01:44:00;99245.06;;;6.44;83.86
15817;BME280;8009;50.070;8.232;2022-09-30T01:46:37;99244.78;;;6.49;83.29
15817;BME280;8009;50.070;8.232;2022-09-30T01:49:12;99239.16;;;6.65;82.19
15817;BME280;8009;50.070;8.232;2022-09-30T01:51:49;99243.59;;;6.53;83.42
15817;BME280;8009;50.070;8.232;2022-09-30T01:54:24;99244.44;;;6.53;83.42
15817;BME280;8009;50.070;8.232;2022-09-30T01:56:58;99246.91;;;6.31;84.06
15817;BME280;8009;50.070;8.232;2022-09-30T01:59:32;99248.41;;;6.35;84.05
15817;BME280;8009;50.070;8.232;2022-09-30T02:02:06;99257.66;;;6.56;83.52
15817;BME280;8009;50.070;8.232;2022-09-30T02:04:37;99247.13;;;6.53;83.12
15817;BME280;8009;50.070;8.232;2022-09-30T02:07:11;99256.56;;;6.21;84.25
15817;BME280;8009;50.070;8.232;2022-09-30T02:09:44;99251.50;;;6.29;83.43
15817;BME280;8009;50.070;8.232;2022-09-30T02:12:17;99253.91;;;6.33;83.99
15817;BME280;8009;50.070;8.232;2022-09-30T02:14:49;99255.50;;;6.36;83.74
15817;BME280;8009;50.070;8.232;2022-09-30T02:17:25;99261.72;;;6.11;85.53
15817;BME280;8009;50.070;8.232;2022-09-30T02:20:00;99251.19;;;6.21;85.17
15817;BME280;8009;50.070;8.232;2022-09-30T02:22:30;99252.94;;;6.34;84.67
15817;BME280;8009;50.070;8.232;2022-09-30T02:25:11;99245.75;;;6.22;85.06
15817;BME280;8009;50.070;8.232;2022-09-30T02:27:48;99249.28;;;6.35;83.49
15817;BME280;8009;50.070;8.232;2022-09-30T02:30:18;99250.66;;;6.28;83.58
15817;BME280;8009;50.070;8.232;2022-09-30T02:32:50;99252.72;;;6.38;83.82
15817;BME280;8009;50.070;8.232;2022-09-30T02:35:24;99262.81;;;6.34;83.23
15817;BME280;8009;50.070;8.232;2022-09-30T02:37:57;99256.34;;;6.24;83.73
15817;BME280;8009;50.070;8.232;2022-09-30T02:40:30;99263.84;;;6.06;83.52
15817;BME280;8009;50.070;8.232;2022-09-30T02:43:01;99256.34;;;6.11;84.38
15817;BME280;8009;50.070;8.232;2022-09-30T02:45:36;99269.47;;;5.89;85.90
15817;BME280;8009;50.070;8.232;2022-09-30T02:48:22;99270.53;;;5.86;85.23
15817;BME280;8009;50.070;8.232;2022-09-30T02:50:55;99274.22;;;5.98;85.24
15817;BME280;8009;50.070;8.232;2022-09-30T02:53:32;99272.53;;;5.97;84.65
15817;BME280;8009;50.070;8.232;2022-09-30T02:56:09;99274.16;;;6.12;84.17
15817;BME280;8009;50.070;8.232;2022-09-30T02:58:41;99272.03;;;6.30;84.00
15817;BME280;8009;50.070;8.232;2022-09-30T03:01:12;99273.72;;;6.31;83.15
15817;BME280;8009;50.070;8.232;2022-09-30T03:03:45;99279.94;;;6.31;83.40
15817;BME280;8009;50.070;8.232;2022-09-30T03:06:15;99270.28;;;6.29;82.87
15817;BME280;8009;50.070;8.232;2022-09-30T03:08:45;99278.56;;;6.26;82.99
15817;BME280;8009;50.070;8.232;2022-09-30T03:11:15;99268.25;;;6.32;82.63
15817;BME280;8009;50.070;8.232;2022-09-30T03:13:59;99269.22;;;6.31;82.87
15817;BME280;8009;50.070;8.232;2022-09-30T03:16:43;99283.03;;;6.13;82.97
15817;BME280;8009;50.070;8.232;2022-09-30T03:19:34;99287.25;;;5.90;84.20
15817;BME280;8009;50.070;8.232;2022-09-30T03:22:17;99294.97;;;5.81;83.93
15817;BME280;8009;50.070;8.232;2022-09-30T03:25:10;99296.75;;;6.08;83.52
15817;BME280;8009;50.070;8.232;2022-09-30T03:27:50;99301.59;;;6.03;83.19
15817;BME280;8009;50.070;8.232;2022-09-30T03:30:28;99298.69;;;6.06;83.17
15817;BME280;8009;50.070;8.232;2022-09-30T03:33:07;99306.13;;;5.88;83.61
15817;BME280;8009;50.070;8.232;2022-09-30T03:35:45;99308.09;;;5.72;84.14
15817;BME280;8009;50.070;8.232;2022-09-30T03:38:27;99306.94;;;6.03;83.01
15817;BME280;8009;50.070;8.232;2022-09-30T03:41:06;99311.22;;;6.05;83.12
15817;BME280;8009;50.070;8.232;2022-09-30T03:43:41;99315.22;;;6.13;83.22
15817;BME280;8009;50.070;8.232;2022-09-30T03:46:16;99316.25;;;5.97;83.47
15817;BME280;8009;50.070;8.232;2022-09-30T03:48:47;99316.06;;;5.86;84.28
15817;BME280;8009;50.070;8.232;2022-09-30T03:51:20;99314.03;;;5.77;84.95
15817;BME280;8009;50.070;8.232;2022-09-30T03:53:50;99320.25;;;5.90;84.85
15817;BME280;8009;50.070;8.232;2022-09-30T03:56:23;99319.28;;;5.91;83.72
15817;BME280;8009;50.070;8.232;2022-09-30T03:58:54;99323.38;;;5.84;84.11
15817;BME280;8009;50.070;8.232;2022-09-30T04:01:23;99323.47;;;5.82;84.22
15817;BME280;8009;50.070;8.232;2022-09-30T04:03:52;99319.63;;;5.86;84.14
15817;BME280;8009;50.070;8.232;2022-09-30T04:06:24;99330.13;;;5.90;84.47
15817;BME280;8009;50.070;8.232;2022-09-30T04:08:52;99328.22;;;5.65;84.71
15817;BME280;8009;50.070;8.232;2022-09-30T04:11:20;99338.84;;;5.66;85.11
15817;BME280;8009;50.070;8.232;2022-09-30T04:13:49;99330.50;;;5.71;84.65
15817;BME280;8009;50.070;8.232;2022-09-30T04:16:17;99336.06;;;5.68;84.75
15817;BME280;8009;50.070;8.232;2022-09-30T04:18:46;99344.81;;;5.84;84.40
15817;BME280;8009;50.070;8.232;2022-09-30T04:21:14;99336.50;;;6.01;84.02
15817;BME280;8009;50.070;8.232;2022-09-30T04:23:45;99340.31;;;5.84;83.56
15817;BME280;8009;50.070;8.232;2022-09-30T04:26:15;99335.31;;;5.93;83.65
15817;BME280;8009;50.070;8.232;2022-09-30T04:28:45;99346.72;;;5.82;84.16
15817;BME280;8009;50.070;8.232;2022-09-30T04:31:13;99345.59;;;5.72;84.44
15817;BME280;8009;50.070;8.232;2022-09-30T04:33:43;99347.88;;;5.78;84.05
15817;BME280;8009;50.070;8.232;2022-09-30T04:36:12;99352.84;;;5.84;83.94
15817;BME280;8009;50.070;8.232;2022-09-30T04:38:40;99357.28;;;5.71;83.89
15817;BME280;8009;50.070;8.232;2022-09-30T04:41:13;99356.31;;;5.45;85.24
15817;BME280;8009;50.070;8.232;2022-09-30T04:43:45;99360.09;;;5.55;84.82
15817;BME280;8009;50.070;8.232;2022-09-30T04:46:14;99364.09;;;5.35;85.53
15817;BME280;8009;50.070;8.232;2022-09-30T04:48:43;99360.94;;;5.28;85.26
15817;BME280;8009;50.070;8.232;2022-09-30T04:51:12;99357.25;;;5.44;85.22
15817;BME280;8009;50.070;8.232;2022-09-30T04:53:41;99361.63;;;5.59;84.61
15817;BME280;8009;50.070;8.232;2022-09-30T04:56:12;99360.06;;;5.42;85.40
15817;BME280;8009;50.070;8.232;2022-09-30T04:58:41;99364.63;;;5.54;84.39
15817;BME280;8009;50.070;8.232;2022-09-30T05:01:12;99364.16;;;5.33;85.09
15817;BME280;8009;50.070;8.232;2022-09-30T05:03:41;99369.13;;;5.40;84.46
15817;BME280;8009;50.070;8.232;2022-09-30T05:06:10;99373.00;;;5.62;84.63
15817;BME280;8009;50.070;8.232;2022-09-30T05:08:40;99375.72;;;5.34;85.24
15817;BME280;8009;50.070;8.232;2022-09-30T05:11:13;99375.81;;;5.47;84.96
15817;BME280;8009;50.070;8.232;2022-09-30T05:13:42;99382.41;;;5.41;85.51
15817;BME280;8009;50.070;8.232;2022-09-30T05:16:12;99383.25;;;5.42;85.33
15817;BME280;8009;50.070;8.232;2022-09-30T05:18:41;99389.75;;;5.52;85.25
15817;BME280;8009;50.070;8.232;2022-09-30T05:21:10;99390.13;;;5.60;84.36
15817;BME280;8009;50.070;8.232;2022-09-30T05:23:39;99401.16;;;5.41;84.69
15817;BME280;8009;50.070;8.232;2022-09-30T05:26:08;99402.72;;;5.31;85.27
15817;BME280;8009;50.070;8.232;2022-09-30T05:28:38;99408.53;;;5.37;84.96
15817;BME280;8009;50.070;8.232;2022-09-30T05:31:07;99418.97;;;5.42;84.72
15817;BME280;8009;50.070;8.232;2022-09-30T05:33:36;99426.31;;;5.38;85.53
15817;BME280;8009;50.070;8.232;2022-09-30T05:36:07;99422.94;;;5.49;84.48
15817;BME280;8009;50.070;8.232;2022-09-30T05:38:36;99433.09;;;5.44;84.87
15817;BME280;8009;50.070;8.232;2022-09-30T05:41:05;99429.75;;;5.55;84.31
15817;BME280;8009;50.070;8.232;2022-09-30T05:43:39;99431.63;;;5.53;84.10
15817;BME280;8009;50.070;8.232;2022-09-30T05:46:09;99432.47;;;5.68;83.51
15817;BME280;8009;50.070;8.232;2022-09-30T05:48:38;99441.75;;;5.76;83.39
15817;BME280;8009;50.070;8.232;2022-09-30T05:51:06;99448.47;;;5.69;84.24
15817;BME280;8009;50.070;8.232;2022-09-30T05:53:36;99438.91;;;5.65;84.85
15817;BME280;8009;50.070;8.232;2022-09-30T05:56:06;99445.44;;;5.47;85.92
15817;BME280;8009;50.070;8.232;2022-09-30T05:58:38;99447.81;;;5.66;84.98
15817;BME280;8009;50.070;8.232;2022-09-30T06:01:08;99443.16;;;5.82;83.88
15817;BME280;8009;50.070;8.232;2022-09-30T06:03:37;99450.03;;;5.86;83.10
15817;BME280;8009;50.070;8.232;2022-09-30T06:06:06;99456.38;;;5.71;84.26
15817;BME280;8009;50.070;8.232;2022-09-30T06:08:35;99464.41;;;5.85;83.91
15817;BME280;8009;50.070;8.232;2022-09-30T06:11:07;99468.06;;;5.84;83.90
15817;BME280;8009;50.070;8.232;2022-09-30T06:13:40;99467.34;;;6.09;83.35
15817;BME280;8009;50.070;8.232;2022-09-30T06:16:10;99463.81;;;5.94;84.03
15817;BME280;8009;50.070;8.232;2022-09-30T06:18:39;99463.25;;;5.89;84.51
15817;BME280;8009;50.070;8.232;2022-09-30T06:21:10;99467.16;;;5.98;84.41
15817;BME280;8009;50.070;8.232;2022-09-30T06:23:41;99468.84;;;6.13;84.05
15817;BME280;8009;50.070;8.232;2022-09-30T06:26:11;99469.16;;;6.08;84.33
15817;BME280;8009;50.070;8.232;2022-09-30T06:28:43;99470.81;;;6.24;83.96
15817;BME280;8009;50.070;8.232;2022-09-30T06:31:12;99463.84;;;6.21;84.78
15817;BME280;8009;50.070;8.232;2022-09-30T06:33:40;99468.16;;;6.24;84.33
15817;BME280;8009;50.070;8.232;2022-09-30T06:36:09;99464.75;;;6.34;83.93
15817;BME280;8009;50.070;8.232;2022-09-30T06:38:38;99470.19;;;6.33;83.88
15817;BME280;8009;50.070;8.232;2022-09-30T06:41:06;99471.44;;;6.42;83.56
15817;BME280;8009;50.070;8.232;2022-09-30T06:43:35;99478.31;;;6.46;84.21
15817;BME280;8009;50.070;8.232;2022-09-30T06:46:06;99473.38;;;6.52;83.05
15817;BME280;8009;50.070;8.232;2022-09-30T06:48:36;99474.72;;;6.72;82.67
15817;BME280;8009;50.070;8.232;2022-09-30T06:51:05;99477.53;;;6.83;81.28
15817;BME280;8009;50.070;8.232;2022-09-30T06:53:34;99474.19;;;6.80;80.84
15817;BME280;8009;50.070;8.232;2022-09-30T06:56:03;99470.41;;;6.70;81.00
15817;BME280;8009;50.070;8.232;2022-09-30T06:58:32;99470.94;;;6.75;80.92
15817;BME280;8009;50.070;8.232;2022-09-30T07:01:02;99479.38;;;6.83;80.70
15817;BME280;8009;50.070;8.232;2022-09-30T07:03:35;99481.81;;;6.86;81.93
15817;BME280;8009;50.070;8.232;2022-09-30T07:06:05;99482.59;;;6.88;82.03
15817;BME280;8009;50.070;8.232;2022-09-30T07:08:35;99494.63;;;6.95;82.03
15817;BME280;8009;50.070;8.232;2022-09-30T07:36:58;99515.25;;;7.20;82.22
15817;BME280;8009;50.070;8.232;2022-09-30T07:39:28;99516.22;;;7.32;82.63
15817;BME280;8009;50.070;8.232;2022-09-30T07:41:58;99512.34;;;7.36;82.62
15817;BME280;8009;50.070;8.232;2022-09-30T08:00:04;99533.94;;;7.73;81.47
15817;BME280;8009;50.070;8.232;2022-09-30T08:07:43;99536.50;;;7.74;82.69
15817;BME280;8009;50.070;8.232;2022-09-30T08:10:12;99539.50;;;7.70;82.81
15817;BME280;8009;50.070;8.232;2022-09-30T08:12:45;99546.19;;;7.77;83.04
15817;BME280;8009;50.070;8.232;2022-09-30T08:15:26;99550.13;;;7.97;81.61
15817;BME280;8009;50.070;8.232;2022-09-30T08:17:57;99557.03;;;7.75;82.84
15817;BME280;8009;50.070;8.232;2022-09-30T08:20:28;99568.66;;;7.76;82.91
15817;BME280;8009;50.070;8.232;2022-09-30T08:22:56;99580.78;;;7.81;83.32
15817;BME280;8009;50.070;8.232;2022-09-30T08:25:25;99581.53;;;7.96;83.22
15817;BME280;8009;50.070;8.232;2022-09-30T08:27:53;99580.78;;;7.81;83.63
15817;BME280;8009;50.070;8.232;2022-09-30T08:30:22;99578.50;;;8.01;83.46
15817;BME280;8009;50.070;8.232;2022-09-30T08:32:53;99580.88;;;7.93;84.29
15817;BME280;8009;50.070;8.232;2022-09-30T08:35:22;99581.66;;;7.95;84.13
15817;BME280;8009;50.070;8.232;2022-09-30T08:37:53;99570.44;;;8.14;83.83
15817;BME280;8009;50.070;8.232;2022-09-30T08:40:25;99578.84;;;8.09;84.16
15817;BME280;8009;50.070;8.232;2022-09-30T08:43:06;99586.44;;;8.15;84.01
15817;BME280;8009;50.070;8.232;2022-09-30T08:45:43;99580.13;;;8.03;84.31
15817;BME280;8009;50.070;8.232;2022-09-30T08:48:31;99579.44;;;8.13;83.82
15817;BME280;8009;50.070;8.232;2022-09-30T08:51:10;99582.69;;;8.18;83.62
15817;BME280;8009;50.070;8.232;2022-09-30T08:53:50;99586.19;;;8.31;83.23
15817;BME280;8009;50.070;8.232;2022-09-30T08:56:22;99576.81;;;8.37;83.25
15817;BME280;8009;50.070;8.232;2022-09-30T08:58:55;99575.09;;;8.48;82.51
15817;BME280;8009;50.070;8.232;2022-09-30T09:06:55;99569.19;;;8.91;81.21
15817;BME280;8009;50.070;8.232;2022-09-30T09:17:19;99585.59;;;9.23;79.68
15817;BME280;8009;50.070;8.232;2022-09-30T09:30:13;99590.97;;;9.70;78.35
15817;BME280;8009;50.070;8.232;2022-09-30T09:32:55;99585.34;;;9.73;78.45
15817;BME280;8009;50.070;8.232;2022-09-30T09:40:59;99593.31;;;10.08;77.08
15817;BME280;8009;50.070;8.232;2022-09-30T10:01:41;99592.47;;;10.85;74.85
15817;BME280;8009;50.070;8.232;2022-09-30T10:04:16;99582.06;;;10.80;74.53
15817;BME280;8009;50.070;8.232;2022-09-30T10:14:27;99567.34;;;11.05;72.31
15817;BME280;8009;50.070;8.232;2022-09-30T10:17:00;99565.38;;;11.28;72.23
15817;BME280;8009;50.070;8.232;2022-09-30T10:19:48;99572.84;;;11.36;71.89
15817;BME280;8009;50.070;8.232;2022-09-30T10:32:43;99571.91;;;11.67;71.23
15817;BME280;8009;50.070;8.232;2022-09-30T10:35:24;99571.72;;;11.80;69.31
15817;BME280;8009;50.070;8.232;2022-09-30T10:37:53;99572.84;;;11.99;68.45
15817;BME280;8009;50.070;8.232;2022-09-30T10:40:33;99567.81;;;11.94;67.68
15817;BME280;8009;50.070;8.232;2022-09-30T10:43:02;99558.78;;;12.14;67.32
15817;BME280;8009;50.070;8.232;2022-09-30T10:45:33;99564.91;;;12.16;67.00
15817;BME280;8009;50.070;8.232;2022-09-30T10:48:15;99558.16;;;12.41;66.75
15817;BME280;8009;50.070;8.232;2022-09-30T10:55:55;99557.03;;;12.54;64.08
15817;BME280;8009;50.070;8.232;2022-09-30T11:01:05;99551.31;;;12.37;66.71
15817;BME280;8009;50.070;8.232;2022-09-30T11:03:48;99552.53;;;12.83;63.40
15817;BME280;8009;50.070;8.232;2022-09-30T11:06:21;99551.09;;;12.79;62.34
15817;BME280;8009;50.070;8.232;2022-09-30T11:08:54;99546.66;;;12.68;61.04
15817;BME280;8009;50.070;8.232;2022-09-30T11:11:27;99553.41;;;13.13;62.82
15817;BME280;8009;50.070;8.232;2022-09-30T11:13:58;99553.50;;;13.50;61.09
15817;BME280;8009;50.070;8.232;2022-09-30T11:16:35;99551.25;;;13.16;58.86
15817;BME280;8009;50.070;8.232;2022-09-30T11:19:09;99549.97;;;13.30;60.58
15817;BME280;8009;50.070;8.232;2022-09-30T11:21:46;99553.53;;;13.40;60.21
15817;BME280;8009;50.070;8.232;2022-09-30T11:24:23;99558.25;;;13.48;60.10
15817;BME280;8009;50.070;8.232;2022-09-30T11:26:59;99551.69;;;13.41;58.16
15817;BME280;8009;50.070;8.232;2022-09-30T11:29:50;99563.25;;;13.24;59.90
15817;BME280;8009;50.070;8.232;2022-09-30T11:32:40;99557.91;;;13.61;59.00
15817;BME280;8009;50.070;8.232;2022-09-30T11:35:24;99547.28;;;13.40;58.07
15817;BME280;8009;50.070;8.232;2022-09-30T11:38:06;99547.56;;;13.37;59.80
15817;BME280;8009;50.070;8.232;2022-09-30T11:40:43;99542.69;;;13.40;59.61
15817;BME280;8009;50.070;8.232;2022-09-30T12:07:03;99534.44;;;14.44;58.73
15817;BME280;8009;50.070;8.232;2022-09-30T12:09:40;99534.78;;;14.04;57.45
15817;BME280;8009;50.070;8.232;2022-09-30T12:12:11;99525.31;;;14.08;57.81
15817;BME280;8009;50.070;8.232;2022-09-30T12:22:30;99537.41;;;14.78;57.48
15817;BME280;8009;50.070;8.232;2022-09-30T12:25:01;99525.50;;;14.61;55.46
15817;BME280;8009;50.070;8.232;2022-09-30T12:33:04;99534.72;;;14.51;55.24
15817;BME280;8009;50.070;8.232;2022-09-30T12:43:58;99540.84;;;14.53;55.42
15817;BME280;8009;50.070;8.232;2022-09-30T12:46:50;99542.44;;;14.91;54.67
15817;BME280;8009;50.070;8.232;2022-09-30T12:49:24;99542.84;;;14.96;53.60
15817;BME280;8009;50.070;8.232;2022-09-30T12:51:55;99540.19;;;15.04;56.01
15817;BME280;8009;50.070;8.232;2022-09-30T12:54:31;99538.88;;;15.08;53.61
15817;BME280;8009;50.070;8.232;2022-09-30T12:57:04;99542.13;;;14.94;55.23
15817;BME280;8009;50.070;8.232;2022-09-30T12:59:43;99539.00;;;15.07;56.58
15817;BME280;8009;50.070;8.232;2022-09-30T13:04:52;99522.69;;;15.25;57.84
15817;BME280;8009;50.070;8.232;2022-09-30T13:24:37;99539.63;;;14.65;53.98
15817;BME280;8009;50.070;8.232;2022-09-30T13:27:32;99537.78;;;14.83;55.17
15817;BME280;8009;50.070;8.232;2022-09-30T13:30:31;99534.69;;;14.96;53.01
15817;BME280;8009;50.070;8.232;2022-09-30T13:35:50;99531.34;;;14.84;53.12
15817;BME280;8009;50.070;8.232;2022-09-30T13:38:21;99532.13;;;14.77;54.28
15817;BME280;8009;50.070;8.232;2022-09-30T13:41:12;99526.38;;;14.98;53.22
15817;BME280;8009;50.070;8.232;2022-09-30T13:43:45;99539.28;;;14.96;54.18
15817;BME280;8009;50.070;8.232;2022-09-30T13:46:22;99534.16;;;14.93;52.92
15817;BME280;8009;50.070;8.232;2022-09-30T13:48:57;99534.81;;;15.13;55.89
15817;BME280;8009;50.070;8.232;2022-09-30T13:51:30;99527.53;;;15.13;52.16
15817;BME280;8009;50.070;8.232;2022-09-30T13:54:05;99526.50;;;15.14;53.29
15817;BME280;8009;50.070;8.232;2022-09-30T13:56:39;99522.63;;;14.99;54.61
15817;BME280;8009;50.070;8.232;2022-09-30T13:59:45;99527.75;;;14.84;51.26
15817;BME280;8009;50.070;8.232;2022-09-30T14:02:47;99521.00;;;15.06;56.74
15817;BME280;8009;50.070;8.232;2022-09-30T14:05:41;99513.09;;;14.77;52.07
15817;BME280;8009;50.070;8.232;2022-09-30T14:08:45;99518.84;;;14.74;56.24
15817;BME280;8009;50.070;8.232;2022-09-30T14:11:39;99519.06;;;14.62;54.43
15817;BME280;8009;50.070;8.232;2022-09-30T14:14:24;99516.03;;;14.66;53.84
15817;BME280;8009;50.070;8.232;2022-09-30T14:17:20;99514.28;;;14.47;53.85
15817;BME280;8009;50.070;8.232;2022-09-30T14:20:00;99516.75;;;14.40;54.98
15817;BME280;8009;50.070;8.232;2022-09-30T14:22:34;99522.09;;;14.32;53.61
15817;BME280;8009;50.070;8.232;2022-09-30T14:25:08;99525.19;;;14.37;54.23
15817;BME280;8009;50.070;8.232;2022-09-30T14:27:54;99519.41;;;14.22;55.35
15817;BME280;8009;50.070;8.232;2022-09-30T14:30:25;99524.56;;;14.15;55.91
15817;BME280;8009;50.070;8.232;2022-09-30T14:32:56;99515.56;;;14.15;57.04
15817;BME280;8009;50.070;8.232;2022-09-30T14:35:28;99506.84;;;13.94;57.74
15817;BME280;8009;50.070;8.232;2022-09-30T14:37:59;99512.47;;;13.73;59.27
15817;BME280;8009;50.070;8.232;2022-09-30T14:40:31;99502.41;;;13.93;57.00
15817;BME280;8009;50.070;8.232;2022-09-30T14:43:05;99495.69;;;14.24;54.31
15817;BME280;8009;50.070;8.232;2022-09-30T14:45:37;99498.66;;;14.31;55.97
15817;BME280;8009;50.070;8.232;2022-09-30T14:48:08;99490.72;;;14.37;55.26
15817;BME280;8009;50.070;8.232;2022-09-30T14:50:42;99488.63;;;14.59;54.58
15817;BME280;8009;50.070;8.232;2022-09-30T14:53:26;99487.22;;;14.73;57.67
15817;BME280;8009;50.070;8.232;2022-09-30T14:55:55;99495.59;;;14.79;57.69
15817;BME280;8009;50.070;8.232;2022-09-30T14:58:27;99493.75;;;14.80;57.80
15817;BME280;8009;50.070;8.232;2022-09-30T15:01:02;99491.19;;;14.60;52.75
15817;BME280;8009;50.070;8.232;2022-09-30T15:03:34;99490.41;;;14.50;52.31
15817;BME280;8009;50.070;8.232;2022-09-30T15:06:04;99485.84;;;14.51;54.05
15817;BME280;8009;50.070;8.232;2022-09-30T15:08:34;99474.78;;;14.52;55.13
15817;BME280;8009;50.070;8.232;2022-09-30T15:11:02;99478.88;;;14.38;53.13
15817;BME280;8009;50.070;8.232;2022-09-30T15:13:33;99480.97;;;14.45;54.19
15817;BME280;8009;50.070;8.232;2022-09-30T15:16:21;99473.31;;;14.76;58.49
15817;BME280;8009;50.070;8.232;2022-09-30T15:18:49;99473.19;;;14.77;53.16
15817;BME280;8009;50.070;8.232;2022-09-30T15:21:18;99472.78;;;14.72;57.12
15817;BME280;8009;50.070;8.232;2022-09-30T15:23:50;99467.97;;;14.66;51.79
15817;BME280;8009;50.070;8.232;2022-09-30T15:26:21;99470.47;;;14.77;55.25
15817;BME280;8009;50.070;8.232;2022-09-30T15:28:53;99476.44;;;14.63;53.74
15817;BME280;8009;50.070;8.232;2022-09-30T15:31:23;99474.41;;;14.65;56.59
15817;BME280;8009;50.070;8.232;2022-09-30T15:34:04;99473.19;;;14.59;54.00
15817;BME280;8009;50.070;8.232;2022-09-30T15:36:34;99475.44;;;14.36;54.99
15817;BME280;8009;50.070;8.232;2022-09-30T15:39:04;99477.28;;;14.18;56.27
15817;BME280;8009;50.070;8.232;2022-09-30T15:41:38;99467.91;;;14.30;55.48
15817;BME280;8009;50.070;8.232;2022-09-30T15:44:16;99471.09;;;14.26;54.63
15817;BME280;8009;50.070;8.232;2022-09-30T15:47:00;99468.47;;;14.06;56.30
15817;BME280;8009;50.070;8.232;2022-09-30T15:49:31;99473.72;;;13.90;57.21
15817;BME280;8009;50.070;8.232;2022-09-30T15:52:20;99461.69;;;14.20;54.81
15817;BME280;8009;50.070;8.232;2022-09-30T15:54:53;99461.84;;;14.19;55.01
15817;BME280;8009;50.070;8.232;2022-09-30T15:57:44;99463.31;;;14.13;57.34
15817;BME280;8009;50.070;8.232;2022-09-30T16:00:35;99474.34;;;14.29;54.99
15817;BME280;8009;50.070;8.232;2022-09-30T16:03:22;99474.00;;;14.14;56.16
15817;BME280;8009;50.070;8.232;2022-09-30T16:05:52;99475.78;;;14.06;56.70
15817;BME280;8009;50.070;8.232;2022-09-30T16:08:23;99476.13;;;13.93;58.05
15817;BME280;8009;50.070;8.232;2022-09-30T16:10:54;99472.84;;;14.17;59.94
15817;BME280;8009;50.070;8.232;2022-09-30T16:13:25;99472.91;;;14.07;58.00
15817;BME280;8009;50.070;8.232;2022-09-30T16:15:58;99473.97;;;14.24;59.37
15817;BME280;8009;50.070;8.232;2022-09-30T16:18:27;99478.63;;;14.32;55.80
15817;BME280;8009;50.070;8.232;2022-09-30T16:20:59;99476.25;;;14.19;55.39
15817;BME280;8009;50.070;8.232;2022-09-30T16:23:29;99472.00;;;14.17;56.00
15817;BME280;8009;50.070;8.232;2022-09-30T16:26:12;99473.22;;;14.04;57.28
15817;BME280;8009;50.070;8.232;2022-09-30T16:28:40;99478.66;;;14.04;56.96
15817;BME280;8009;50.070;8.232;2022-09-30T16:31:12;99477.91;;;14.12;60.27
15817;BME280;8009;50.070;8.232;2022-09-30T16:33:43;99478.50;;;14.06;57.38
15817;BME280;8009;50.070;8.232;2022-09-30T16:36:12;99481.59;;;13.83;59.18
15817;BME280;8009;50.070;8.232;2022-09-30T16:38:42;99484.16;;;13.85;58.83
15817;BME280;8009;50.070;8.232;2022-09-30T16:41:11;99489.03;;;13.81;59.37
15817;BME280;8009;50.070;8.232;2022-09-30T16:43:39;99491.78;;;13.72;59.80
15817;BME280;8009;50.070;8.232;2022-09-30T16:46:08;99503.38;;;13.54;60.70
15817;BME280;8009;50.070;8.232;2022-09-30T16:48:40;99497.56;;;13.49;60.93
15817;BME280;8009;50.070;8.232;2022-09-30T16:51:12;99488.00;;;13.45;61.05
15817;BME280;8009;50.070;8.232;2022-09-30T16:53:41;99493.59;;;13.34;61.98
15817;BME280;8009;50.070;8.232;2022-09-30T16:56:13;99489.31;;;13.31;61.88
15817;BME280;8009;50.070;8.232;2022-09-30T16:58:43;99500.59;;;13.17;63.01
15817;BME280;8009;50.070;8.232;2022-09-30T17:01:17;99494.47;;;13.15;63.97